createdAt,value
2018-04-10T00:01:56.861Z,9.40
2018-04-10T00:06:00.432Z,9.40
2018-04-10T00:10:03.191Z,9.40
2018-04-10T00:14:05.922Z,9.30
2018-04-10T00:18:09.418Z,9.30
2018-04-10T00:22:12.128Z,9.30
2018-04-10T00:26:15.133Z,9.40
2018-04-10T00:30:18.680Z,9.40
2018-04-10T00:34:21.476Z,9.40
2018-04-10T00:38:24.313Z,9.40
2018-04-10T00:42:27.051Z,9.40
2018-04-10T00:46:29.736Z,9.40
2018-04-10T00:50:32.468Z,9.40
2018-04-10T00:54:35.207Z,9.30
2018-04-10T00:58:38.113Z,9.10
2018-04-10T01:02:40.872Z,9.00
2018-04-10T01:06:44.422Z,8.80
2018-04-10T01:10:47.233Z,8.80
2018-04-10T01:14:49.987Z,8.90
2018-04-10T01:18:53.561Z,8.90
2018-04-10T01:22:57.186Z,9.10
2018-04-10T01:26:59.934Z,9.00
2018-04-10T01:31:02.767Z,9.10
2018-04-10T01:35:05.502Z,9.20
2018-04-10T01:39:08.484Z,9.30
2018-04-10T01:43:11.211Z,9.30
2018-04-10T01:47:14.786Z,9.00
2018-04-10T01:51:17.530Z,9.10
2018-04-10T01:55:21.068Z,8.80
2018-04-10T01:59:23.807Z,8.80
2018-04-10T02:03:26.568Z,8.60
2018-04-10T02:07:29.321Z,8.50
2018-04-10T02:11:32.270Z,8.40
2018-04-10T02:15:35.124Z,8.30
2018-04-10T02:19:38.596Z,8.00
2018-04-10T02:23:42.233Z,7.90
2018-04-10T02:27:44.971Z,7.90
2018-04-10T02:31:47.879Z,7.80
2018-04-10T02:35:50.619Z,7.80
2018-04-10T02:39:53.452Z,7.70
2018-04-10T02:43:56.971Z,7.40
2018-04-10T02:48:00.522Z,7.30
2018-04-10T02:52:03.258Z,7.30
2018-04-10T02:56:06.039Z,7.20
2018-04-10T03:00:08.797Z,7.20
2018-04-10T03:04:11.793Z,7.10
2018-04-10T03:08:14.533Z,7.00
2018-04-10T03:12:17.373Z,7.00
2018-04-10T03:16:21.240Z,6.90
2018-04-10T03:20:24.041Z,6.80
2018-04-10T03:24:26.832Z,6.80
2018-04-10T03:28:29.684Z,6.80
2018-04-10T03:32:33.187Z,7.00
2018-04-10T03:36:36.244Z,6.90
2018-04-10T03:40:39.002Z,7.10
2018-04-10T03:44:42.567Z,7.20
2018-04-10T03:48:45.282Z,7.20
2018-04-10T03:52:48.212Z,7.20
2018-04-10T03:56:51.717Z,7.30
2018-04-10T04:00:55.444Z,7.30
2018-04-10T04:04:58.957Z,7.40
2018-04-10T04:09:02.616Z,7.30
2018-04-10T04:13:05.432Z,7.30
2018-04-10T04:17:20.076Z,7.30
2018-04-10T04:21:34.615Z,7.40
2018-04-10T04:25:37.327Z,7.40
2018-04-10T04:29:40.244Z,7.50
2018-04-10T04:33:42.968Z,7.60
2018-04-10T04:37:47.717Z,8.00
2018-04-10T04:41:50.559Z,8.00
2018-04-10T04:45:53.481Z,8.10
2018-04-10T04:49:56.219Z,8.10
2018-04-10T04:53:58.971Z,8.30
2018-04-10T04:58:01.719Z,8.50
2018-04-10T05:02:05.310Z,8.80
2018-04-10T05:06:08.033Z,8.80
2018-04-10T05:10:11.682Z,9.20
2018-04-10T05:14:14.459Z,9.20
2018-04-10T05:18:17.979Z,9.50
2018-04-10T05:22:20.782Z,9.50
2018-04-10T05:26:23.523Z,9.60
2018-04-10T05:30:26.333Z,9.70
2018-04-10T05:34:29.063Z,9.80
2018-04-10T05:38:32.162Z,9.90
2018-04-10T05:42:35.061Z,10.00
2018-04-10T05:46:38.570Z,10.40
2018-04-10T05:50:42.352Z,10.50
2018-04-10T05:54:45.106Z,10.40
2018-04-10T05:58:48.144Z,10.60
2018-04-10T06:02:51.654Z,10.90
2018-04-10T06:06:54.506Z,10.90
2018-04-10T06:10:58.022Z,11.20
2018-04-10T06:15:01.544Z,11.30
2018-04-10T06:19:04.433Z,11.30
2018-04-10T06:23:07.218Z,11.50
2018-04-10T06:27:10.030Z,11.50
2018-04-10T06:31:13.754Z,11.90
2018-04-10T06:35:17.300Z,12.60
2018-04-10T06:39:20.649Z,12.50
2018-04-10T06:43:23.594Z,12.80
2018-04-10T06:47:27.060Z,13.20
2018-04-10T06:51:31.278Z,13.40
2018-04-10T06:55:34.171Z,13.40
2018-04-10T06:59:37.271Z,13.30
2018-04-10T07:03:40.972Z,13.80
2018-04-10T07:07:44.781Z,13.80
2018-04-10T07:11:47.812Z,13.80
2018-04-10T07:15:50.786Z,13.90
2018-04-10T07:19:54.445Z,13.60
2018-04-10T07:23:57.282Z,13.80
2018-04-10T07:28:00.817Z,13.90
2018-04-10T07:32:04.176Z,13.90
2018-04-10T07:36:07.967Z,15.00
2018-04-10T07:40:10.980Z,15.00
2018-04-10T07:44:14.163Z,14.90
2018-04-10T07:48:17.158Z,14.40
2018-04-10T07:52:20.296Z,14.60
2018-04-10T07:56:23.177Z,14.50
2018-04-10T08:00:26.182Z,14.60
2018-04-10T08:04:28.896Z,14.50
2018-04-10T08:08:31.676Z,14.60
2018-04-10T08:12:35.511Z,14.40
2018-04-10T08:16:38.307Z,14.50
2018-04-10T08:20:41.153Z,14.80
2018-04-10T08:24:44.648Z,14.80
2018-04-10T08:28:47.402Z,14.80
2018-04-10T08:32:50.342Z,14.60
2018-04-10T08:36:53.114Z,14.80
2018-04-10T08:40:56.079Z,14.90
2018-04-10T08:44:58.835Z,15.00
2018-04-10T08:49:01.551Z,15.00
2018-04-10T08:53:05.330Z,14.60
2018-04-10T08:57:08.846Z,14.60
2018-04-10T09:01:11.798Z,14.60
2018-04-10T09:05:15.303Z,14.50
2018-04-10T09:09:18.840Z,14.80
2018-04-10T09:13:21.776Z,14.80
2018-04-10T09:17:24.520Z,14.60
2018-04-10T09:21:28.201Z,15.20
2018-04-10T09:25:31.037Z,15.20
2018-04-10T09:29:34.643Z,16.80
2018-04-10T09:33:37.571Z,16.80
2018-04-10T09:37:40.313Z,16.90
2018-04-10T09:41:43.042Z,17.40
2018-04-10T09:45:46.707Z,17.70
2018-04-10T09:49:49.448Z,17.70
2018-04-10T09:53:52.216Z,17.10
2018-04-10T09:57:54.978Z,17.10
2018-04-10T10:01:58.090Z,17.20
2018-04-10T10:06:00.928Z,17.90
2018-04-10T10:10:16.392Z,17.40
2018-04-10T10:14:19.332Z,17.20
2018-04-10T10:18:22.047Z,17.20
2018-04-10T10:22:25.537Z,18.00
2018-04-10T10:26:28.318Z,18.00
2018-04-10T10:30:31.105Z,18.30
2018-04-10T10:34:34.058Z,18.50
2018-04-10T10:38:37.574Z,18.40
2018-04-10T10:42:41.053Z,17.30
2018-04-10T10:46:43.795Z,17.30
2018-04-10T10:50:46.524Z,16.90
2018-04-10T10:54:49.496Z,17.00
2018-04-10T10:58:52.337Z,17.50
2018-04-10T11:02:55.116Z,17.80
2018-04-10T11:06:58.774Z,17.00
2018-04-10T11:11:01.522Z,16.90
2018-04-10T11:15:04.488Z,17.20
2018-04-10T11:19:07.980Z,17.20
2018-04-10T11:23:10.768Z,17.10
2018-04-10T11:27:14.029Z,17.40
2018-04-10T11:31:19.073Z,17.20
2018-04-10T11:35:25.704Z,16.70
2018-04-10T11:39:31.804Z,16.70
2018-04-10T11:43:34.976Z,17.00
2018-04-10T11:47:37.995Z,17.90
2018-04-10T11:51:41.826Z,20.20
2018-04-10T11:55:45.753Z,20.10
2018-04-10T11:59:48.483Z,19.90
2018-04-10T12:03:51.253Z,19.40
2018-04-10T12:07:54.893Z,21.60
2018-04-10T12:11:57.624Z,21.50
2018-04-10T12:16:00.524Z,20.80
2018-04-10T12:20:03.283Z,20.40
2018-04-10T12:24:06.820Z,19.80
2018-04-10T12:28:09.685Z,19.80
2018-04-10T12:32:13.221Z,20.00
2018-04-10T12:36:16.041Z,20.00
2018-04-10T12:40:18.759Z,19.90
2018-04-10T12:44:21.484Z,18.80
2018-04-10T12:48:24.353Z,17.90
2018-04-10T12:52:27.284Z,18.50
2018-04-10T12:56:30.079Z,19.10
2018-04-10T13:00:32.847Z,18.90
2018-04-10T13:04:35.604Z,19.10
2018-04-10T13:08:38.688Z,18.90
2018-04-10T13:12:42.198Z,19.60
2018-04-10T13:16:45.712Z,19.60
2018-04-10T13:20:49.281Z,19.30
2018-04-10T13:24:52.022Z,19.30
2018-04-10T13:28:55.745Z,19.20
2018-04-10T13:32:59.281Z,18.70
2018-04-10T13:37:02.542Z,18.70
2018-04-10T13:41:05.277Z,18.40
2018-04-10T13:45:08.092Z,18.20
2018-04-10T13:49:10.887Z,18.20
2018-04-10T13:53:13.754Z,18.30
2018-04-10T13:57:16.919Z,17.80
2018-04-10T14:01:19.767Z,17.90
2018-04-10T14:05:22.573Z,20.20
2018-04-10T14:09:26.430Z,19.90
2018-04-10T14:13:29.209Z,19.90
2018-04-10T14:17:32.191Z,19.30
2018-04-10T14:21:35.038Z,20.90
2018-04-10T14:25:37.808Z,21.40
2018-04-10T14:29:40.666Z,20.70
2018-04-10T14:33:43.497Z,19.10
2018-04-10T14:37:47.229Z,18.30
2018-04-10T14:41:49.956Z,18.30
2018-04-10T14:45:52.697Z,17.50
2018-04-10T14:49:57.252Z,17.30
2018-04-10T14:54:00.970Z,17.30
2018-04-10T14:58:03.841Z,17.30
2018-04-10T15:02:06.573Z,17.10
2018-04-10T15:06:09.566Z,17.50
2018-04-10T15:10:12.440Z,17.80
2018-04-10T15:14:15.236Z,18.00
2018-04-10T15:18:17.994Z,18.20
2018-04-10T15:22:21.547Z,17.70
2018-04-10T15:26:24.337Z,17.70
2018-04-10T15:30:27.160Z,17.70
2018-04-10T15:34:30.700Z,16.80
2018-04-10T15:38:33.472Z,16.80
2018-04-10T15:42:36.948Z,16.40
2018-04-10T15:46:39.731Z,16.40
2018-04-10T15:50:42.515Z,16.20
2018-04-10T15:54:45.227Z,16.20
2018-04-10T15:58:48.074Z,16.20
2018-04-10T16:02:52.155Z,16.30
2018-04-10T16:06:54.894Z,16.30
2018-04-10T16:10:58.630Z,16.00
2018-04-10T16:15:02.164Z,15.80
2018-04-10T16:19:05.122Z,15.80
2018-04-10T16:23:07.866Z,15.70
2018-04-10T16:27:10.902Z,15.60
2018-04-10T16:31:13.737Z,15.60
2018-04-10T16:35:16.486Z,15.50
2018-04-10T16:39:19.242Z,15.40
2018-04-10T16:43:22.163Z,15.20
2018-04-10T16:47:25.180Z,15.00
2018-04-10T16:51:27.924Z,15.00
2018-04-10T16:55:31.519Z,15.00
2018-04-10T16:59:34.262Z,15.00
2018-04-10T17:03:37.002Z,15.00
2018-04-10T17:07:39.780Z,14.90
2018-04-10T17:11:43.505Z,14.90
2018-04-10T17:15:46.250Z,14.80
2018-04-10T17:19:49.994Z,14.60
2018-04-10T17:23:52.891Z,14.60
2018-04-10T17:27:55.647Z,14.30
2018-04-10T17:32:00.381Z,14.10
2018-04-10T17:36:03.160Z,14.10
2018-04-10T17:40:05.908Z,14.00
2018-04-10T17:44:09.406Z,13.80
2018-04-10T17:48:12.174Z,13.70
2018-04-10T17:52:15.000Z,13.80
2018-04-10T17:56:17.758Z,13.60
2018-04-10T18:00:20.622Z,13.50
2018-04-10T18:04:23.480Z,13.40
2018-04-10T18:08:26.224Z,13.20
2018-04-10T18:12:29.162Z,12.90
2018-04-10T18:16:31.980Z,12.50
2018-04-10T18:20:34.841Z,12.20
2018-04-10T18:24:37.740Z,12.00
2018-04-10T18:28:41.374Z,11.80
2018-04-10T18:32:46.399Z,11.50
2018-04-10T18:36:49.132Z,11.50
2018-04-10T18:40:51.837Z,11.40
2018-04-10T18:44:55.091Z,11.50
2018-04-10T18:49:00.960Z,11.40
2018-04-10T18:53:03.993Z,11.40
2018-04-10T18:57:06.988Z,11.40
2018-04-10T19:01:09.745Z,11.30
2018-04-10T19:05:13.480Z,11.10
2018-04-10T19:09:17.907Z,11.10
2018-04-10T19:13:21.568Z,11.10
2018-04-10T19:17:24.321Z,11.40
2018-04-10T19:21:27.853Z,11.40
2018-04-10T19:25:31.132Z,11.40
2018-04-10T19:29:34.870Z,11.10
2018-04-10T19:33:37.865Z,11.10
2018-04-10T19:37:40.809Z,11.00
2018-04-10T19:41:43.625Z,10.90
2018-04-10T19:45:46.412Z,10.90
2018-04-10T19:49:49.173Z,10.80
2018-04-10T19:53:52.029Z,10.80
2018-04-10T19:57:55.201Z,10.70
2018-04-10T20:01:58.760Z,10.40
2018-04-10T20:06:02.338Z,10.40
2018-04-10T20:10:05.076Z,10.40
2018-04-10T20:14:07.815Z,10.30
2018-04-10T20:18:10.696Z,10.20
2018-04-10T20:22:13.428Z,10.10
2018-04-10T20:26:16.292Z,10.00
2018-04-10T20:30:19.024Z,10.00
2018-04-10T20:34:21.831Z,9.80
2018-04-10T20:38:25.340Z,9.70
2018-04-10T20:42:28.445Z,9.70
2018-04-10T20:46:31.211Z,9.60
2018-04-10T20:50:34.121Z,9.60
2018-04-10T20:54:36.827Z,9.50
2018-04-10T20:58:39.583Z,9.50
2018-04-10T21:02:42.368Z,9.50
2018-04-10T21:06:45.110Z,9.40
2018-04-10T21:10:47.913Z,9.30
2018-04-10T21:14:50.788Z,9.30
2018-04-10T21:18:53.568Z,9.30
2018-04-10T21:22:57.067Z,9.30
2018-04-10T21:27:01.017Z,9.30
2018-04-10T21:31:04.512Z,9.30
2018-04-10T21:35:07.347Z,9.20
2018-04-10T21:39:11.052Z,9.20
2018-04-10T21:43:20.413Z,9.30
2018-04-10T21:47:23.127Z,9.30
2018-04-10T21:51:26.343Z,9.30
2018-04-10T21:55:29.081Z,9.30
2018-04-10T21:59:32.785Z,9.30
2018-04-10T22:03:36.573Z,9.30
2018-04-10T22:07:40.354Z,9.30
2018-04-10T22:11:43.269Z,9.20
2018-04-10T22:15:46.176Z,9.30
2018-04-10T22:19:48.902Z,9.20
2018-04-10T22:23:51.700Z,9.30
2018-04-10T22:27:54.428Z,9.20
2018-04-10T22:31:58.016Z,9.10
2018-04-10T22:36:00.747Z,9.10
2018-04-10T22:40:03.739Z,9.10
2018-04-10T22:44:06.459Z,9.00
2018-04-10T22:48:10.330Z,8.90
2018-04-10T22:52:14.104Z,8.80
2018-04-10T22:56:16.857Z,8.80
2018-04-10T23:00:54.094Z,8.70
2018-04-10T23:04:56.829Z,8.70
2018-04-10T23:08:59.729Z,8.60
2018-04-10T23:13:03.243Z,8.50
2018-04-10T23:17:06.737Z,8.40
2018-04-10T23:21:09.722Z,8.40
2018-04-10T23:25:12.535Z,8.40
2018-04-10T23:29:15.926Z,8.50
2018-04-10T23:33:18.910Z,8.50
2018-04-10T23:37:21.800Z,8.50
2018-04-10T23:41:25.370Z,8.60
2018-04-10T23:45:28.266Z,8.60
2018-04-10T23:49:30.968Z,8.60
2018-04-10T23:53:33.767Z,8.70
2018-04-10T23:57:36.478Z,8.70
